New Orleans, LA (70145)

6:26 AM CST on December 28, 2014 (GMT -0600)
Gentilly Terrace | Change Station
CLOSE
Current Station
Personal Weather Station
Location: New Orleans, LA
Elevation: 15 ft
Nearby Weather Stations
Active Advisory: Special Statement

Elev 15 ft 30.00 °N, 90.05 °W | Updated 11 seconds ago

Overcast
Overcast
67.9 °F
Feels Like 67.9 °F
N
0.0
Wind Variable Wind from WSW
Gusts 1.0 mph

Today
High -- | Low -- °F
--% Chance of Precip.
Yesterday
High -- | Low -- °F
Precip. -- in
6:54 AM 5:08 PM
Waxing Crescent, 47% visible
Pressure 30.08 in
Visibility 1.0 miles
Clouds Mostly Cloudy 300 ft
Overcast 900 ft
Dew Point 68 °F
Humidity 99%
Rainfall 0.00 in
Snow Depth Not available.
UV 0 out of 12
Pollen .60 out of 12
Air Quality Not available.
Flu Activity Not available.
SPECI KNEW 281216Z AUTO 22007KT 1SM BR BKN003 OVC009 20/18 A3008 RMK AO2 T02000183 TSNO

More Conditions Fewer Conditions

Pressure 30.08 in
Visibility 1.0 miles
Clouds Mostly Cloudy 300 ft
Overcast 900 ft
Dew Point 68 °F
Humidity 99%
Rainfall 0.00 in
Snow Depth Not available.
UV 0 out of 12
Pollen .60 out of 12
Air Quality Not available.
Flu Activity Not available.
SPECI KNEW 281216Z AUTO 22007KT 1SM BR BKN003 OVC009 20/18 A3008 RMK AO2 T02000183 TSNO

More Conditions Fewer Conditions

10-Day Weather Forecast

Almanac

Astronomy

Dec. 28, 2014 Rise Set
Actual Time
Civil Twilight
Nautical Twilight
Astronomical Twilight
Moon
Length of Visible Light
Length of Day
Tomorrow will be .
, % of the Moon is Illuminated

Today's Extremes

State Highs State Lows

Community

WunderPhotos

Upload Photos

1,781,238 photos uploaded!

WunderBlogs® & News

Nearby

Air Quality

  Air Quality AQ Index Pollutant
Not available.

Snow Depth

Station Depth Elevation

Earthquake Activity

City Distance Mag. Time & Date
Minimum magnitude displayed is 2.5.

Coastal Water Temperatures

Place Temperature

Nearby Weather Stations